createdAt,value
2022-11-14T00:01:12.745Z,9.25
2022-11-14T00:03:40.087Z,9.00
2022-11-14T00:06:08.026Z,7.00
2022-11-14T00:08:35.487Z,12.50
2022-11-14T00:11:02.485Z,7.00
2022-11-14T00:13:29.453Z,6.25
2022-11-14T00:15:56.441Z,3.75
2022-11-14T00:18:23.860Z,22.00
2022-11-14T00:20:52.648Z,25.50
2022-11-14T00:23:21.129Z,15.00
2022-11-14T00:25:48.453Z,9.75
2022-11-14T00:28:15.529Z,24.25
2022-11-14T00:30:46.420Z,24.25
2022-11-14T00:33:18.702Z,16.75
2022-11-14T00:35:54.440Z,16.75
2022-11-14T00:38:23.003Z,7.25
2022-11-14T00:40:49.950Z,10.50
2022-11-14T00:43:17.090Z,16.75
2022-11-14T00:45:47.617Z,19.25
2022-11-14T00:48:16.003Z,10.75
2022-11-14T00:50:43.425Z,23.75
2022-11-14T00:53:10.507Z,38.50
2022-11-14T00:55:37.452Z,27.25
2022-11-14T00:58:04.632Z,17.50
2022-11-14T01:00:31.673Z,13.75
2022-11-14T01:02:58.734Z,8.75
2022-11-14T01:05:26.239Z,5.50
2022-11-14T01:07:53.557Z,8.25
2022-11-14T01:10:21.275Z,6.50
2022-11-14T01:12:48.362Z,12.75
2022-11-14T01:15:15.386Z,11.25
2022-11-14T01:17:42.393Z,30.25
2022-11-14T01:20:09.839Z,28.75
2022-11-14T01:22:36.791Z,38.75
2022-11-14T01:25:03.940Z,37.50
2022-11-14T01:27:31.664Z,20.75
2022-11-14T01:29:58.682Z,14.75
2022-11-14T01:32:26.913Z,12.00
2022-11-14T01:34:53.892Z,5.75
2022-11-14T01:37:20.979Z,11.25
2022-11-14T01:39:47.906Z,8.00
2022-11-14T01:42:16.301Z,8.25
2022-11-14T01:44:48.582Z,9.00
2022-11-14T01:47:21.052Z,12.50
2022-11-14T01:49:54.047Z,12.00
2022-11-14T01:52:35.357Z,8.75
2022-11-14T01:55:08.233Z,3.50
2022-11-14T01:57:44.473Z,7.00
2022-11-14T02:00:13.136Z,9.00
2022-11-14T02:02:40.074Z,24.50
2022-11-14T02:05:35.823Z,27.50
2022-11-14T02:08:20.226Z,28.25
2022-11-14T02:11:18.525Z,13.00
2022-11-14T02:14:01.567Z,17.00
2022-11-14T02:17:07.214Z,15.50
2022-11-14T02:20:20.466Z,32.75
2022-11-14T02:22:47.385Z,33.50
2022-11-14T02:25:18.832Z,34.25
2022-11-14T02:27:45.806Z,45.00
2022-11-14T02:30:20.786Z,23.25
2022-11-14T02:35:35.018Z,37.00
2022-11-14T02:38:01.915Z,36.25
2022-11-14T02:40:28.887Z,37.50
2022-11-14T02:42:55.774Z,29.00
2022-11-14T02:45:22.689Z,36.00
2022-11-14T02:47:49.592Z,24.25
2022-11-14T02:50:17.397Z,34.75
2022-11-14T02:52:44.399Z,23.00
2022-11-14T02:55:11.476Z,25.00
2022-11-14T02:57:38.409Z,31.25
2022-11-14T03:00:09.969Z,44.00
2022-11-14T03:02:40.390Z,39.75
2022-11-14T03:05:08.014Z,32.25
2022-11-14T03:07:34.969Z,34.50
2022-11-14T03:10:02.549Z,26.75
2022-11-14T03:12:29.494Z,30.75
2022-11-14T03:14:56.453Z,17.00
2022-11-14T03:17:24.885Z,12.00
2022-11-14T03:19:51.850Z,16.00
2022-11-14T03:22:18.769Z,43.00
2022-11-14T03:24:45.643Z,34.75
2022-11-14T03:27:12.585Z,35.50
2022-11-14T03:29:39.505Z,18.00
2022-11-14T03:32:06.630Z,21.25
2022-11-14T03:34:33.857Z,12.50
2022-11-14T03:37:00.888Z,25.00
2022-11-14T03:39:28.136Z,37.50
2022-11-14T03:41:55.055Z,26.00
2022-11-14T03:44:22.226Z,41.00
2022-11-14T03:46:49.176Z,37.00
2022-11-14T03:49:16.066Z,21.00
2022-11-14T03:51:42.983Z,30.00
2022-11-14T03:54:10.290Z,29.75
2022-11-14T03:56:37.241Z,24.75
2022-11-14T03:59:04.134Z,16.25
2022-11-14T04:01:31.149Z,7.00
2022-11-14T04:03:58.073Z,32.25
2022-11-14T04:06:25.011Z,42.50
2022-11-14T04:08:52.200Z,26.25
2022-11-14T04:11:19.875Z,28.50
2022-11-14T04:13:46.800Z,21.00
2022-11-14T04:16:13.931Z,26.75
2022-11-14T04:18:40.812Z,15.75
2022-11-14T04:21:07.835Z,28.50
2022-11-14T04:23:34.743Z,28.75
2022-11-14T04:26:01.972Z,25.00
2022-11-14T04:28:29.065Z,30.00
2022-11-14T04:30:56.128Z,41.00
2022-11-14T04:33:23.105Z,28.50
2022-11-14T04:35:50.330Z,33.75
2022-11-14T04:38:17.328Z,32.00
2022-11-14T04:40:51.490Z,17.00
2022-11-14T04:43:19.574Z,31.75
2022-11-14T04:45:47.147Z,32.00
2022-11-14T04:48:14.281Z,37.00
2022-11-14T04:50:41.146Z,26.00
2022-11-14T04:53:08.087Z,16.50
2022-11-14T04:55:35.051Z,7.50
2022-11-14T04:58:02.774Z,11.75
2022-11-14T05:00:29.783Z,6.00
2022-11-14T05:02:59.168Z,13.75
2022-11-14T05:05:26.105Z,13.50
2022-11-14T05:07:54.676Z,8.00
2022-11-14T05:10:21.608Z,8.25
2022-11-14T05:12:48.505Z,5.00
2022-11-14T05:15:15.421Z,5.00
2022-11-14T05:17:42.322Z,8.25
2022-11-14T05:20:09.904Z,26.75
2022-11-14T05:22:37.017Z,17.25
2022-11-14T05:25:04.087Z,22.50
2022-11-14T05:27:32.103Z,20.50
2022-11-14T05:29:59.004Z,15.00
2022-11-14T05:32:25.965Z,15.25
2022-11-14T05:34:52.884Z,19.50
2022-11-14T05:37:19.830Z,18.50
2022-11-14T05:39:46.954Z,14.00
2022-11-14T05:42:13.862Z,19.50
2022-11-14T05:44:40.925Z,18.00
2022-11-14T05:47:07.878Z,12.00
2022-11-14T05:49:34.746Z,5.50
2022-11-14T05:52:01.640Z,8.50
2022-11-14T05:54:28.515Z,9.50
2022-11-14T05:56:55.565Z,6.00
2022-11-14T05:59:22.613Z,20.25
2022-11-14T06:01:49.578Z,16.00
2022-11-14T06:04:16.612Z,16.75
2022-11-14T06:06:43.615Z,13.00
2022-11-14T06:09:10.835Z,7.25
2022-11-14T06:11:39.793Z,11.75
2022-11-14T06:14:10.452Z,10.25
2022-11-14T06:16:38.015Z,15.50
2022-11-14T06:19:05.649Z,12.00
2022-11-14T06:21:32.627Z,7.75
2022-11-14T06:23:59.711Z,7.75
2022-11-14T06:26:32.906Z,6.25
2022-11-14T06:29:00.985Z,12.50
2022-11-14T06:31:28.373Z,8.00
2022-11-14T06:33:55.420Z,7.50
2022-11-14T06:36:22.359Z,8.25
2022-11-14T06:38:49.266Z,7.75
2022-11-14T06:41:18.459Z,14.75
2022-11-14T06:43:48.364Z,19.75
2022-11-14T06:46:18.413Z,17.50
2022-11-14T06:48:46.723Z,18.50
2022-11-14T06:51:15.786Z,20.00
2022-11-14T06:53:43.465Z,12.75
2022-11-14T06:56:16.059Z,16.25
2022-11-14T06:58:46.466Z,9.25
2022-11-14T07:01:13.647Z,3.50
2022-11-14T07:03:41.822Z,10.25
2022-11-14T07:06:10.815Z,5.50
2022-11-14T07:08:38.340Z,5.75
2022-11-14T07:11:10.599Z,2.00
2022-11-14T07:13:38.452Z,4.00
2022-11-14T07:16:06.083Z,1.25
2022-11-14T07:18:34.384Z,6.00
2022-11-14T07:21:04.206Z,6.75
2022-11-14T07:23:32.998Z,7.33
2022-11-14T07:26:04.845Z,7.75
2022-11-14T07:28:32.515Z,21.00
2022-11-14T07:30:59.850Z,11.00
2022-11-14T07:33:26.718Z,12.00
2022-11-14T07:35:53.631Z,18.50
2022-11-14T07:38:20.570Z,9.00
2022-11-14T07:40:59.657Z,6.00
2022-11-14T07:43:27.889Z,4.00
2022-11-14T07:45:59.034Z,9.25
2022-11-14T07:48:25.952Z,13.00
2022-11-14T07:50:53.267Z,6.75
2022-11-14T07:53:20.564Z,8.50
2022-11-14T07:55:47.471Z,5.00
2022-11-14T07:58:14.450Z,8.00
2022-11-14T08:00:41.500Z,6.75
2022-11-14T08:03:08.916Z,8.75
2022-11-14T08:05:36.046Z,20.25
2022-11-14T08:08:03.088Z,16.50
2022-11-14T08:10:33.554Z,12.75
2022-11-14T08:13:33.482Z,7.00
2022-11-14T08:15:50.543Z,5.50
2022-11-14T08:18:17.598Z,7.00
2022-11-14T08:20:45.188Z,6.75
2022-11-14T08:23:13.346Z,10.50
2022-11-14T08:25:41.041Z,8.00
2022-11-14T08:28:08.078Z,5.75
2022-11-14T08:30:35.504Z,9.50
2022-11-14T08:33:04.348Z,8.75
2022-11-14T08:35:31.400Z,12.50
2022-11-14T08:37:58.297Z,6.75
2022-11-14T08:40:25.400Z,13.00
2022-11-14T08:42:52.358Z,21.25
2022-11-14T08:45:19.347Z,14.00
2022-11-14T08:47:53.633Z,9.00
2022-11-14T08:50:20.548Z,6.00
2022-11-14T08:52:51.789Z,6.00
2022-11-14T08:55:20.122Z,8.25
2022-11-14T08:57:49.623Z,9.25
2022-11-14T09:00:18.420Z,11.00
2022-11-14T09:02:45.591Z,14.00
2022-11-14T09:05:12.633Z,26.00
2022-11-14T09:07:39.557Z,20.25
2022-11-14T09:10:07.421Z,15.75
2022-11-14T09:12:34.538Z,25.50
2022-11-14T09:15:01.612Z,31.75
2022-11-14T09:17:28.627Z,16.00
2022-11-14T09:19:56.100Z,9.50
2022-11-14T09:22:23.578Z,6.25
2022-11-14T09:24:52.244Z,7.00
2022-11-14T09:27:19.308Z,7.25
2022-11-14T09:29:46.370Z,6.00
2022-11-14T09:32:13.279Z,3.25
2022-11-14T09:34:43.211Z,7.25
2022-11-14T09:37:10.429Z,21.50
2022-11-14T09:39:40.836Z,19.50
2022-11-14T09:42:26.679Z,25.25
2022-11-14T09:44:59.764Z,15.00
2022-11-14T09:47:31.282Z,10.00
2022-11-14T09:50:11.673Z,29.50
2022-11-14T09:52:46.692Z,30.25
2022-11-14T09:55:37.213Z,20.00
2022-11-14T09:58:18.848Z,35.25
2022-11-14T10:01:11.486Z,18.75
2022-11-14T10:04:13.198Z,10.75
2022-11-14T10:07:27.803Z,9.25
2022-11-14T10:10:56.562Z,10.75
2022-11-14T10:14:00.610Z,11.00
2022-11-14T10:16:39.689Z,11.75
2022-11-14T10:19:41.432Z,8.25
2022-11-14T10:22:47.019Z,12.50
2022-11-14T10:25:23.184Z,7.00
2022-11-14T10:28:28.414Z,13.75
2022-11-14T10:31:29.100Z,12.25
2022-11-14T10:34:26.695Z,10.00
2022-11-14T10:37:05.426Z,6.00
2022-11-14T10:39:32.296Z,13.50
2022-11-14T10:42:07.818Z,18.50
2022-11-14T10:44:50.756Z,22.25
2022-11-14T10:47:25.368Z,25.75
2022-11-14T10:49:56.306Z,28.25
2022-11-14T10:52:36.701Z,28.75
2022-11-14T10:55:10.570Z,25.50
2022-11-14T10:57:37.491Z,29.50
2022-11-14T11:00:12.960Z,30.75
2022-11-14T11:02:55.732Z,28.00
2022-11-14T11:05:31.122Z,24.00
2022-11-14T11:11:32.313Z,44.50
2022-11-14T11:14:01.620Z,29.50
2022-11-14T11:16:29.982Z,42.75
2022-11-14T11:19:21.774Z,37.75
2022-11-14T11:21:51.413Z,17.25
2022-11-14T11:24:33.296Z,33.25
2022-11-14T11:27:25.952Z,32.00
2022-11-14T11:30:19.972Z,30.25
2022-11-14T11:32:46.884Z,35.50
2022-11-14T11:35:16.503Z,19.50
2022-11-14T11:37:57.344Z,11.75
2022-11-14T11:40:26.901Z,10.50
2022-11-14T11:45:54.905Z,33.25
2022-11-14T11:48:23.971Z,35.75
2022-11-14T11:50:50.985Z,34.00
2022-11-14T11:53:44.459Z,27.50
2022-11-14T11:56:20.184Z,32.00
2022-11-14T11:58:51.095Z,24.00
2022-11-14T12:01:18.712Z,27.50
2022-11-14T12:03:51.885Z,15.00
2022-11-14T12:06:25.517Z,13.00
2022-11-14T12:09:21.007Z,24.25
2022-11-14T12:11:56.969Z,15.50
2022-11-14T12:14:54.764Z,14.25
2022-11-14T12:17:30.961Z,14.50
2022-11-14T12:20:06.781Z,15.00
2022-11-14T12:23:03.472Z,13.50
2022-11-14T12:25:47.006Z,10.00
2022-11-14T12:28:32.599Z,9.00
2022-11-14T12:31:05.811Z,14.50
2022-11-14T12:33:33.029Z,16.75
2022-11-14T12:36:03.221Z,15.25
2022-11-14T12:38:42.710Z,20.75
2022-11-14T12:41:10.441Z,15.75
2022-11-14T12:43:40.630Z,18.00
2022-11-14T12:46:09.982Z,17.75
2022-11-14T12:48:39.526Z,17.00
2022-11-14T12:51:26.671Z,19.50
2022-11-14T12:53:58.261Z,17.25
2022-11-14T12:56:31.347Z,15.50
2022-11-14T12:59:06.973Z,21.00
2022-11-14T13:01:52.317Z,19.50
2022-11-14T13:04:41.078Z,15.25
2022-11-14T13:07:31.364Z,15.75
2022-11-14T13:10:15.213Z,24.50
2022-11-14T13:13:15.254Z,17.50
2022-11-14T13:16:26.467Z,19.50
2022-11-14T13:19:35.596Z,10.50
2022-11-14T13:22:11.794Z,14.50
2022-11-14T13:25:00.049Z,14.25
2022-11-14T13:28:05.283Z,14.75
2022-11-14T13:31:01.011Z,15.00
2022-11-14T13:33:42.312Z,13.75
2022-11-14T13:36:35.363Z,15.50
2022-11-14T13:39:24.050Z,17.00
2022-11-14T13:42:09.443Z,17.75
2022-11-14T13:44:45.413Z,15.75
2022-11-14T13:47:27.281Z,15.25
2022-11-14T13:50:03.384Z,14.50
2022-11-14T13:52:35.893Z,14.00
2022-11-14T13:55:03.174Z,15.75
2022-11-14T13:57:32.939Z,12.25
2022-11-14T14:00:19.721Z,24.25
2022-11-14T14:03:11.232Z,21.25
2022-11-14T14:05:52.397Z,23.00
2022-11-14T14:08:32.338Z,18.25
2022-11-14T14:11:46.334Z,28.25
2022-11-14T14:14:22.820Z,21.50
2022-11-14T14:16:58.938Z,22.75
2022-11-14T14:20:07.945Z,22.75
2022-11-14T14:22:51.776Z,17.00
2022-11-14T14:25:30.126Z,15.00
2022-11-14T14:28:21.414Z,10.00
2022-11-14T14:31:11.890Z,9.50
2022-11-14T14:33:47.307Z,16.00
2022-11-14T14:36:29.170Z,12.25
2022-11-14T14:39:28.927Z,10.25
2022-11-14T14:41:58.778Z,13.50
2022-11-14T14:44:27.598Z,12.00
2022-11-14T14:46:54.944Z,8.50
2022-11-14T14:49:38.523Z,11.75
2022-11-14T14:52:31.089Z,7.75
2022-11-14T14:54:59.069Z,14.25
2022-11-14T14:57:26.313Z,12.50
2022-11-14T15:00:07.421Z,13.00
2022-11-14T15:02:34.677Z,11.75
2022-11-14T15:05:03.034Z,15.25
2022-11-14T15:07:30.628Z,18.00
2022-11-14T15:10:03.032Z,15.25
2022-11-14T15:12:31.730Z,19.25
2022-11-14T15:15:01.261Z,13.25
2022-11-14T15:17:35.659Z,13.75
2022-11-14T15:20:03.413Z,17.50
2022-11-14T15:22:30.423Z,18.00
2022-11-14T15:25:12.539Z,17.75
2022-11-14T15:27:52.285Z,21.50
2022-11-14T15:30:37.304Z,12.75
2022-11-14T15:33:07.051Z,9.50
2022-11-14T15:35:36.976Z,17.00
2022-11-14T15:38:54.562Z,24.25
2022-11-14T15:41:30.613Z,21.50
2022-11-14T15:44:05.825Z,71.33
2022-11-14T15:46:42.023Z,49.00
2022-11-14T15:49:14.739Z,35.50
2022-11-14T15:51:46.447Z,34.50
2022-11-14T15:54:21.184Z,37.25
2022-11-14T15:56:48.303Z,31.50
2022-11-14T15:59:15.251Z,21.00
2022-11-14T16:01:44.820Z,13.75
2022-11-14T16:04:19.394Z,14.00
2022-11-14T16:06:46.837Z,19.50
2022-11-14T16:09:18.964Z,19.25
2022-11-14T16:11:48.766Z,17.00
2022-11-14T16:14:16.431Z,14.50
2022-11-14T16:16:43.409Z,10.50
2022-11-14T16:19:14.417Z,17.25
2022-11-14T16:21:41.796Z,21.75
2022-11-14T16:24:23.933Z,22.25
2022-11-14T16:26:50.939Z,27.00
2022-11-14T16:29:18.048Z,28.25
2022-11-14T16:31:45.057Z,21.25
2022-11-14T16:34:19.381Z,23.00
2022-11-14T16:36:46.415Z,14.00
2022-11-14T16:39:13.949Z,7.75
2022-11-14T16:41:41.641Z,8.75
2022-11-14T16:44:14.710Z,40.00
2022-11-14T16:46:41.965Z,26.00
2022-11-14T16:49:17.828Z,26.50
2022-11-14T16:51:49.638Z,37.00
2022-11-14T16:54:23.711Z,10.50
2022-11-14T16:56:52.662Z,13.25
2022-11-14T16:59:19.816Z,38.50
2022-11-14T17:01:48.479Z,29.25
2022-11-14T17:04:15.470Z,15.50
2022-11-14T17:06:43.884Z,15.50
2022-11-14T17:09:13.877Z,15.25
2022-11-14T17:11:40.786Z,23.50
2022-11-14T17:14:07.836Z,51.25
2022-11-14T17:16:34.839Z,22.25
2022-11-14T17:19:02.205Z,6.75
2022-11-14T17:21:29.787Z,13.00
2022-11-14T17:24:00.572Z,29.00
2022-11-14T17:26:28.579Z,60.00
2022-11-14T17:28:55.526Z,42.00
2022-11-14T17:31:22.468Z,32.25
2022-11-14T17:33:54.488Z,30.50
2022-11-14T17:36:23.042Z,51.00
2022-11-14T17:38:50.159Z,33.75
2022-11-14T17:41:17.952Z,19.25
2022-11-14T17:43:45.487Z,23.25
2022-11-14T17:46:15.937Z,13.00
2022-11-14T17:48:46.751Z,12.50
2022-11-14T17:51:16.145Z,8.75
2022-11-14T17:53:44.193Z,4.25
2022-11-14T17:56:19.193Z,6.00
2022-11-14T17:58:46.860Z,7.00
2022-11-14T18:01:17.067Z,8.50
2022-11-14T18:03:44.115Z,4.00
2022-11-14T18:06:13.771Z,13.00
2022-11-14T18:08:40.903Z,13.00
2022-11-14T18:11:10.398Z,26.50
2022-11-14T18:13:38.975Z,33.75
2022-11-14T18:16:10.628Z,33.50
2022-11-14T18:18:38.366Z,35.25
2022-11-14T18:21:25.758Z,25.25
2022-11-14T18:23:54.855Z,25.75
2022-11-14T18:26:28.219Z,36.75
2022-11-14T18:28:57.011Z,36.75
2022-11-14T18:31:24.442Z,36.25
2022-11-14T18:33:51.743Z,35.75
2022-11-14T18:36:19.216Z,33.00
2022-11-14T18:38:47.049Z,47.50
2022-11-14T18:41:17.064Z,27.25
2022-11-14T18:43:44.761Z,20.25
2022-11-14T18:46:17.805Z,13.75
2022-11-14T18:48:47.714Z,15.25
2022-11-14T18:51:18.970Z,27.00
2022-11-14T18:53:46.302Z,20.50
2022-11-14T18:56:16.971Z,15.00
2022-11-14T18:58:44.939Z,6.75
2022-11-14T19:01:18.563Z,8.00
2022-11-14T19:03:45.521Z,6.75
2022-11-14T19:06:13.321Z,8.75
2022-11-14T19:08:41.416Z,12.25
2022-11-14T19:11:33.933Z,11.75
2022-11-14T19:14:02.544Z,7.75
2022-11-14T19:16:32.717Z,7.00
2022-11-14T19:19:00.499Z,23.50
2022-11-14T19:21:29.123Z,12.25
2022-11-14T19:23:57.221Z,17.00
2022-11-14T19:26:24.462Z,13.75
2022-11-14T19:28:51.486Z,11.50
2022-11-14T19:31:19.342Z,13.75
2022-11-14T19:33:46.403Z,36.50
2022-11-14T19:36:18.780Z,34.50
2022-11-14T19:38:56.030Z,30.75
2022-11-14T19:41:27.737Z,27.50
2022-11-14T19:43:57.100Z,27.00
2022-11-14T19:46:27.304Z,27.75
2022-11-14T19:48:58.988Z,25.50
2022-11-14T19:51:26.492Z,23.25
2022-11-14T19:53:53.527Z,28.25
2022-11-14T19:56:20.737Z,25.00
2022-11-14T19:58:49.399Z,30.25
2022-11-14T20:01:19.511Z,14.00
2022-11-14T20:04:00.526Z,16.75
2022-11-14T20:06:34.309Z,30.50
2022-11-14T20:09:06.659Z,22.25
2022-11-14T20:11:34.048Z,25.75
2022-11-14T20:14:02.492Z,20.25
2022-11-14T20:16:32.650Z,22.25
2022-11-14T20:19:00.940Z,16.00
2022-11-14T20:21:31.348Z,6.25
2022-11-14T20:23:58.909Z,7.00
2022-11-14T20:26:26.521Z,6.75
2022-11-14T20:28:54.985Z,5.50
2022-11-14T20:31:25.706Z,10.00
2022-11-14T20:33:54.579Z,26.25
2022-11-14T20:36:24.462Z,33.75
2022-11-14T20:38:53.661Z,31.25
2022-11-14T20:41:21.140Z,18.00
2022-11-14T20:43:48.400Z,15.25
2022-11-14T20:46:20.101Z,14.50
2022-11-14T20:48:47.909Z,36.25
2022-11-14T20:51:20.235Z,43.25
2022-11-14T20:53:48.418Z,33.25
2022-11-14T20:56:16.645Z,28.50
2022-11-14T20:58:45.520Z,22.50
2022-11-14T21:01:12.567Z,24.75
2022-11-14T21:03:40.142Z,10.00
2022-11-14T21:06:08.431Z,17.00
2022-11-14T21:08:36.809Z,18.00
2022-11-14T21:11:06.834Z,12.25
2022-11-14T21:13:56.542Z,10.00
2022-11-14T21:16:43.697Z,23.25
2022-11-14T21:19:10.777Z,29.50
2022-11-14T21:21:38.318Z,26.00
2022-11-14T21:24:05.675Z,43.00
2022-11-14T21:26:36.929Z,32.50
2022-11-14T21:29:07.591Z,21.75
2022-11-14T21:31:37.577Z,22.50
2022-11-14T21:34:11.229Z,18.00
2022-11-14T21:36:47.094Z,12.75
2022-11-14T21:39:16.160Z,3.50
2022-11-14T21:41:44.443Z,31.75
2022-11-14T21:44:13.851Z,26.75
2022-11-14T21:46:41.432Z,29.00
2022-11-14T21:49:09.317Z,40.00
2022-11-14T21:51:36.345Z,23.50
2022-11-14T21:54:03.436Z,11.50
2022-11-14T21:56:35.921Z,18.50
2022-11-14T21:59:15.881Z,11.50
2022-11-14T22:02:06.057Z,6.75
2022-11-14T22:04:33.853Z,6.75
2022-11-14T22:07:08.419Z,43.50
2022-11-14T22:09:38.665Z,55.50
2022-11-14T22:12:08.222Z,41.25
2022-11-14T22:14:35.268Z,45.75
2022-11-14T22:17:02.201Z,40.75
2022-11-14T22:19:29.212Z,11.50
2022-11-14T22:21:56.209Z,27.00
2022-11-14T22:24:23.990Z,39.25
2022-11-14T22:26:51.098Z,34.25
2022-11-14T22:29:18.268Z,32.50
2022-11-14T22:31:45.472Z,25.00
2022-11-14T22:34:12.759Z,22.75
2022-11-14T22:36:39.824Z,46.50
2022-11-14T22:39:06.839Z,43.00
2022-11-14T22:41:34.065Z,24.50
2022-11-14T22:44:01.988Z,16.00
2022-11-14T22:46:29.453Z,13.00
2022-11-14T22:48:56.722Z,7.00
2022-11-14T22:51:26.045Z,7.00
2022-11-14T22:53:55.398Z,5.50
2022-11-14T22:56:25.362Z,20.75
2022-11-14T22:58:52.565Z,8.00
2022-11-14T23:01:29.883Z,9.50
2022-11-14T23:04:01.850Z,13.25
2022-11-14T23:06:30.703Z,14.25
2022-11-14T23:08:58.096Z,10.25
2022-11-14T23:11:28.256Z,20.00
2022-11-14T23:13:57.425Z,23.00
2022-11-14T23:16:29.586Z,16.25
2022-11-14T23:18:59.021Z,8.00
2022-11-14T23:21:38.006Z,27.25
2022-11-14T23:24:08.906Z,14.50
2022-11-14T23:26:35.917Z,17.75
2022-11-14T23:29:02.915Z,10.25
2022-11-14T23:31:29.934Z,2.50
2022-11-14T23:33:58.386Z,24.00
2022-11-14T23:36:25.478Z,14.00
2022-11-14T23:38:53.537Z,13.50
2022-11-14T23:41:23.113Z,6.75
2022-11-14T23:43:50.135Z,5.50
2022-11-14T23:46:17.184Z,6.25
2022-11-14T23:48:44.154Z,7.00
2022-11-14T23:51:11.184Z,3.75
2022-11-14T23:53:38.122Z,1.75
2022-11-14T23:56:05.546Z,2.75
2022-11-14T23:58:32.461Z,2.25
